Time;durP1;ratioP1;P1;durP2;ratioP2;P2;SDS_P1;SDS_P2;PMS_P1;PMS_P2;Temp;Humidity;BMP_temperature;BMP_pressure;BME280_temperature;BME280_humidity;BME280_pressure;Samples;Min_cycle;Max_cycle;Signal;HPM_P1;HPM_P2
2023/01/05 00:01:13;;;;;;;;;;;;;;;;;;5074859;28;19944;-68
2023/01/05 00:03:39;;;;;;;;;;;;;;;;;;5075746;28;19912;-68
2023/01/05 00:06:05;;;;;;;;;;;;;;;;;;5076043;28;19909;-68
2023/01/05 00:08:30;;;;;;;;;;;;;;;;;;5075974;28;19908;-67
2023/01/05 00:24:40;;;;;;;;;;;;;;;;;;5095684;28;19915;-68
2023/01/05 00:27:06;;;;;;;;;;;;;;;;;;5077661;28;19908;-68
2023/01/05 00:29:32;;;;;;;;;;;;;;;;;;5095859;28;19912;-68
2023/01/05 00:31:58;;;;;;;;;;;;;;;;;;5095390;28;19909;-68
2023/01/05 00:34:24;;;;;;;;;;;;;;;;;;5077531;28;19908;-67
2023/01/05 00:36:50;;;;;;;;;;;;;;;;;;5095583;28;19915;-67
2023/01/05 00:39:15;;;;;;;;;;;;;;;;;;5077070;28;19998;-68
2023/01/05 00:41:41;;;;;;;;;;;;;;;;;;5077429;28;19919;-68
2023/01/05 00:44:07;;;;;;;;;;;;;;;;;;5095152;28;19908;-68
2023/01/05 00:46:33;;;;;;;;;;;;;;;;;;5077414;28;19944;-68
2023/01/05 00:48:59;;;;;;;;;;;;;;;;;;5095434;28;19931;-67
2023/01/05 00:51:25;;;;;;;;;;;;;;;;;;5094930;28;19908;-68
2023/01/05 00:53:51;;;;;;;;;;;;;;;;;;5095906;28;19934;-68
2023/01/05 00:56:17;;;;;;;;;;;;;;;;;;5077119;28;19963;-67
2023/01/05 00:58:43;;;;;;;;;;;;;;;;;;5094681;28;19955;-68
2023/01/05 01:01:09;;;;;;;;;;;;;;;;;;5094679;28;19908;-68
2023/01/05 01:03:35;;;;;;;;;;;;;;;;;;5094984;28;19908;-67
2023/01/05 01:06:01;;;;;;;;;;;;;;;;;;5076544;28;19959;-67
2023/01/05 01:08:27;;;;;;;;;;;;;;;;;;5095387;28;19908;-67
2023/01/05 01:10:53;;;;;;;;;;;;;;;;;;5094931;28;19916;-67
2023/01/05 01:13:19;;;;;;;;;;;;;;;;;;5094668;28;19914;-67
2023/01/05 01:15:45;;;;;;;;;;;;;;;;;;5076770;28;19908;-67
2023/01/05 01:18:11;;;;;;;;;;;;;;;;;;5094656;28;19927;-68
2023/01/05 01:20:36;;;;;;;;;;;;;;;;;;5094585;28;19991;-66
2023/01/05 01:23:03;;;;;;;;;;;;;;;;;;5094877;28;19908;-68
2023/01/05 01:25:29;;;;;;;;;;;;;;;;;;5094809;28;19954;-68
2023/01/05 01:27:55;;;;;;;;;;;;;;;;;;5094293;28;19908;-68
2023/01/05 01:30:21;;;;;;;;;;;;;;;;;;5094903;28;19908;-67
2023/01/05 01:32:47;;;;;;;;;;;;;;;;;;5094710;28;19908;-67
2023/01/05 01:35:13;;;;;;;;;;;;;;;;;;5094166;28;19915;-68
2023/01/05 01:37:39;;;;;;;;;;;;;;;;;;5094496;28;19959;-67
2023/01/05 01:40:04;;;;;;;;;;;;;;;;;;5094668;28;19915;-68
2023/01/05 01:42:30;;;;;;;;;;;;;;;;;;5094053;28;20319;-68
2023/01/05 01:44:56;;;;;;;;;;;;;;;;;;5094436;28;20285;-68
2023/01/05 01:47:22;;;;;;;;;;;;;;;;;;5094100;28;19931;-68
2023/01/05 01:49:48;;;;;;;;;;;;;;;;;;5094416;28;19999;-68
2023/01/05 01:52:14;;;;;;;;;;;;;;;;;;5094284;28;19908;-68
2023/01/05 01:54:40;;;;;;;;;;;;;;;;;;5093936;28;20275;-68
2023/01/05 01:57:06;;;;;;;;;;;;;;;;;;5094735;28;20011;-68
2023/01/05 01:59:32;;;;;;;;;;;;;;;;;;5076084;28;19912;-68
2023/01/05 02:01:58;;;;;;;;;;;;;;;;;;5093815;28;19915;-68
2023/01/05 02:04:24;;;;;;;;;;;;;;;;;;5076008;28;19908;-68
2023/01/05 02:06:50;;;;;;;;;;;;;;;;;;5094078;28;19931;-66
2023/01/05 02:09:16;;;;;;;;;;;;;;;;;;5075602;28;19908;-66
2023/01/05 02:11:42;;;;;;;;;;;;;;;;;;5075953;28;19908;-67
2023/01/05 02:14:08;;;;;;;;;;;;;;;;;;5093872;28;19908;-68
2023/01/05 02:16:34;;;;;;;;;;;;;;;;;;5093390;28;19908;-67
2023/01/05 02:19:00;;;;;;;;;;;;;;;;;;5075862;28;19923;-67
2023/01/05 02:21:26;;;;;;;;;;;;;;;;;;5093924;28;19909;-68
2023/01/05 02:23:52;;;;;;;;;;;;;;;;;;5093505;28;19912;-68
2023/01/05 02:26:18;;;;;;;;;;;;;;;;;;5093921;28;19916;-68
2023/01/05 02:28:44;;;;;;;;;;;;;;;;;;5075808;28;19962;-67
2023/01/05 02:31:10;;;;;;;;;;;;;;;;;;5093517;28;19998;-67
2023/01/05 02:33:35;;;;;;;;;;;;;;;;;;5094291;28;19908;-67
2023/01/05 02:36:01;;;;;;;;;;;;;;;;;;5075878;28;20436;-67
2023/01/05 02:38:27;;;;;;;;;;;;;;;;;;5093285;28;20312;-67
2023/01/05 02:40:53;;;;;;;;;;;;;;;;;;5093820;28;20280;-67
2023/01/05 02:43:19;;;;;;;;;;;;;;;;;;5093749;28;20421;-67
2023/01/05 02:45:45;;;;;;;;;;;;;;;;;;5093305;28;20405;-67
2023/01/05 02:48:11;;;;;;;;;;;;;;;;;;5094242;28;20360;-66
2023/01/05 02:50:37;;;;;;;;;;;;;;;;;;5093285;28;20268;-67
2023/01/05 02:53:03;;;;;;;;;;;;;;;;;;5093651;28;19908;-67
2023/01/05 02:55:29;;;;;;;;;;;;;;;;;;5093771;28;19909;-67
2023/01/05 02:57:55;;;;;;;;;;;;;;;;;;5074895;28;19969;-67
2023/01/05 03:00:21;;;;;;;;;;;;;;;;;;5093933;28;19908;-68
2023/01/05 03:02:48;;;;;;;;;;;;;;;;;;5094229;28;19963;-67
2023/01/05 03:05:14;;;;;;;;;;;;;;;;;;5093138;28;19909;-67
2023/01/05 03:07:40;;;;;;;;;;;;;;;;;;5075405;28;19931;-67
2023/01/05 03:15:34;;;;;;;;;;;;;;;;;;5093557;28;19916;-68
2023/01/05 03:18:00;;;;;;;;;;;;;;;;;;5093202;28;20323;-67
2023/01/05 03:20:26;;;;;;;;;;;;;;;;;;5092995;28;20371;-67
2023/01/05 03:36:38;;;;;;;;;;;;;;;;;;5096892;28;19915;-68
2023/01/05 03:39:04;;;;;;;;;;;;;;;;;;5097168;28;19922;-67
2023/01/05 03:41:30;;;;;;;;;;;;;;;;;;5078252;28;20360;-67
2023/01/05 03:43:55;;;;;;;;;;;;;;;;;;5078527;28;19977;-67
2023/01/05 03:46:21;;;;;;;;;;;;;;;;;;5097137;28;19920;-67
2023/01/05 03:48:47;;;;;;;;;;;;;;;;;;5078138;28;19908;-67
2023/01/05 03:51:13;;;;;;;;;;;;;;;;;;5078437;28;19935;-67
2023/01/05 03:53:39;;;;;;;;;;;;;;;;;;5096523;28;19916;-67
2023/01/05 03:56:05;;;;;;;;;;;;;;;;;;5096112;28;19955;-66
2023/01/05 03:58:31;;;;;;;;;;;;;;;;;;5096307;28;19920;-66
2023/01/05 04:00:57;;;;;;;;;;;;;;;;;;5096177;28;19961;-67
2023/01/05 04:03:23;;;;;;;;;;;;;;;;;;5096682;28;19916;-68
2023/01/05 04:05:49;;;;;;;;;;;;;;;;;;5078172;28;19908;-68
2023/01/05 04:08:15;;;;;;;;;;;;;;;;;;5095852;28;19912;-67
2023/01/05 04:10:41;;;;;;;;;;;;;;;;;;5096228;28;19919;-68
2023/01/05 04:13:07;;;;;;;;;;;;;;;;;;5096164;28;19908;-67
2023/01/05 04:15:33;;;;;;;;;;;;;;;;;;5095823;28;19909;-68
2023/01/05 04:17:59;;;;;;;;;;;;;;;;;;5077760;28;19924;-68
2023/01/05 04:20:25;;;;;;;;;;;;;;;;;;5096081;28;19912;-68
2023/01/05 04:22:51;;;;;;;;;;;;;;;;;;5095584;28;19919;-68
2023/01/05 04:25:17;;;;;;;;;;;;;;;;;;5095934;28;19908;-67
2023/01/05 04:27:43;;;;;;;;;;;;;;;;;;5096078;28;19934;-68
2023/01/05 04:30:09;;;;;;;;;;;;;;;;;;5095461;28;19966;-67
2023/01/05 04:32:35;;;;;;;;;;;;;;;;;;5095846;28;19909;-67
2023/01/05 04:35:01;;;;;;;;;;;;;;;;;;5095864;28;19914;-67
2023/01/05 04:37:27;;;;;;;;;;;;;;;;;;5095190;28;20308;-67
2023/01/05 04:39:52;;;;;;;;;;;;;;;;;;5095633;28;20391;-67
2023/01/05 04:42:18;;;;;;;;;;;;;;;;;;5095900;28;19912;-67
2023/01/05 04:44:44;;;;;;;;;;;;;;;;;;5095087;28;19915;-68
2023/01/05 04:47:10;;;;;;;;;;;;;;;;;;5095427;28;19995;-68
2023/01/05 04:49:36;;;;;;;;;;;;;;;;;;5077281;28;19961;-67
2023/01/05 04:52:02;;;;;;;;;;;;;;;;;;5095032;28;19908;-67
2023/01/05 04:54:28;;;;;;;;;;;;;;;;;;5095370;28;20326;-67
2023/01/05 04:56:54;;;;;;;;;;;;;;;;;;5077094;28;20322;-67
2023/01/05 04:59:20;;;;;;;;;;;;;;;;;;5094856;28;20278;-67
2023/01/05 05:01:46;;;;;;;;;;;;;;;;;;5077030;28;20272;-67
2023/01/05 05:04:12;;;;;;;;;;;;;;;;;;5094803;28;19995;-67
2023/01/05 05:06:38;;;;;;;;;;;;;;;;;;5095082;28;20073;-67
2023/01/05 05:09:04;;;;;;;;;;;;;;;;;;5076961;28;19908;-67
2023/01/05 05:11:30;;;;;;;;;;;;;;;;;;5094714;28;20376;-67
2023/01/05 05:13:56;;;;;;;;;;;;;;;;;;5095065;28;20369;-67
2023/01/05 05:16:21;;;;;;;;;;;;;;;;;;5094965;28;20277;-67
2023/01/05 05:18:47;;;;;;;;;;;;;;;;;;5094273;28;20296;-67
2023/01/05 05:21:13;;;;;;;;;;;;;;;;;;5094864;28;19914;-67
2023/01/05 05:23:39;;;;;;;;;;;;;;;;;;5094882;28;19915;-68
2023/01/05 05:26:05;;;;;;;;;;;;;;;;;;5094396;28;19990;-67
2023/01/05 05:28:31;;;;;;;;;;;;;;;;;;5094895;28;19912;-67
2023/01/05 05:30:57;;;;;;;;;;;;;;;;;;5094677;28;19908;-68
2023/01/05 05:33:23;;;;;;;;;;;;;;;;;;5094313;28;19908;-68
2023/01/05 05:35:49;;;;;;;;;;;;;;;;;;5094555;28;19908;-68
2023/01/05 05:38:15;;;;;;;;;;;;;;;;;;5094526;28;19916;-68
2023/01/05 05:40:41;;;;;;;;;;;;;;;;;;5094084;28;20124;-67
2023/01/05 05:43:07;;;;;;;;;;;;;;;;;;5094431;28;19962;-67
2023/01/05 05:45:33;;;;;;;;;;;;;;;;;;5076314;28;19908;-66
2023/01/05 05:48:00;;;;;;;;;;;;;;;;;;5093574;28;19908;-67
2023/01/05 05:50:26;;;;;;;;;;;;;;;;;;5094424;28;19916;-67
2023/01/05 05:52:51;;;;;;;;;;;;;;;;;;5094351;28;20249;-68
2023/01/05 05:55:17;;;;;;;;;;;;;;;;;;5093917;28;19969;-68
2023/01/05 05:57:43;;;;;;;;;;;;;;;;;;5094187;28;19956;-68
2023/01/05 06:00:09;;;;;;;;;;;;;;;;;;5094123;28;19962;-67
2023/01/05 06:02:35;;;;;;;;;;;;;;;;;;5075604;28;19908;-67
2023/01/05 06:05:01;;;;;;;;;;;;;;;;;;5094155;28;19947;-67
2023/01/05 06:07:27;;;;;;;;;;;;;;;;;;5093928;28;19922;-67
2023/01/05 06:09:53;;;;;;;;;;;;;;;;;;5094629;28;19951;-67
2023/01/05 06:12:19;;;;;;;;;;;;;;;;;;5094218;28;20348;-67
2023/01/05 06:14:45;;;;;;;;;;;;;;;;;;5075619;28;20383;-67
2023/01/05 06:17:11;;;;;;;;;;;;;;;;;;5093740;28;20404;-67
2023/01/05 06:19:37;;;;;;;;;;;;;;;;;;5094355;28;20384;-67
2023/01/05 06:22:03;;;;;;;;;;;;;;;;;;5075497;28;20375;-67
2023/01/05 06:24:29;;;;;;;;;;;;;;;;;;5094043;28;20353;-67
2023/01/05 06:26:55;;;;;;;;;;;;;;;;;;5093939;28;20432;-67
2023/01/05 06:29:21;;;;;;;;;;;;;;;;;;5093468;28;20305;-68
2023/01/05 06:31:47;;;;;;;;;;;;;;;;;;5093903;28;19915;-67
2023/01/05 06:34:13;;;;;;;;;;;;;;;;;;5094316;28;19909;-67
2023/01/05 06:36:39;;;;;;;;;;;;;;;;;;5093456;28;19951;-67
2023/01/05 06:39:05;;;;;;;;;;;;;;;;;;5093692;28;19941;-67
2023/01/05 06:41:31;;;;;;;;;;;;;;;;;;5093773;28;19912;-67
2023/01/05 06:43:57;;;;;;;;;;;;;;;;;;5075340;28;19912;-67
2023/01/05 06:46:23;;;;;;;;;;;;;;;;;;5093790;28;20326;-68
2023/01/05 06:48:50;;;;;;;;;;;;;;;;;;5075884;28;19934;-67
2023/01/05 06:51:16;;;;;;;;;;;;;;;;;;5093297;28;19912;-68
2023/01/05 06:53:42;;;;;;;;;;;;;;;;;;5075519;28;20018;-67
2023/01/05 06:56:07;;;;;;;;;;;;;;;;;;5093613;28;19916;-68
2023/01/05 06:58:33;;;;;;;;;;;;;;;;;;5093171;28;19916;-67
2023/01/05 07:00:59;;;;;;;;;;;;;;;;;;5096615;28;19995;-68
2023/01/05 07:03:25;;;;;;;;;;;;;;;;;;5097579;28;19915;-67
2023/01/05 07:05:51;;;;;;;;;;;;;;;;;;5078929;28;19998;-67
2023/01/05 07:08:17;;;;;;;;;;;;;;;;;;5097551;28;19997;-67
2023/01/05 07:10:43;;;;;;;;;;;;;;;;;;5097366;28;19912;-67
2023/01/05 07:13:09;;;;;;;;;;;;;;;;;;5097522;28;19923;-67
2023/01/05 07:15:35;;;;;;;;;;;;;;;;;;5097575;28;19954;-68
2023/01/05 07:18:01;;;;;;;;;;;;;;;;;;5096612;28;19981;-67
2023/01/05 07:20:27;;;;;;;;;;;;;;;;;;5079031;28;19909;-67
2023/01/05 07:22:53;;;;;;;;;;;;;;;;;;5097242;28;20375;-68
2023/01/05 07:25:19;;;;;;;;;;;;;;;;;;5078576;28;20359;-68
2023/01/05 07:27:45;;;;;;;;;;;;;;;;;;5097685;28;20336;-68
2023/01/05 07:30:11;;;;;;;;;;;;;;;;;;5096952;28;20422;-68
2023/01/05 07:32:37;;;;;;;;;;;;;;;;;;5078315;28;20352;-68
2023/01/05 07:35:02;;;;;;;;;;;;;;;;;;5097002;28;20317;-68
2023/01/05 07:37:28;;;;;;;;;;;;;;;;;;5096810;28;20411;-67
2023/01/05 07:39:54;;;;;;;;;;;;;;;;;;5096749;28;20353;-67
2023/01/05 07:42:20;;;;;;;;;;;;;;;;;;5078666;28;20264;-67
2023/01/05 07:44:46;;;;;;;;;;;;;;;;;;5078586;28;19915;-67
2023/01/05 07:47:12;;;;;;;;;;;;;;;;;;5096273;28;19908;-68
2023/01/05 07:49:38;;;;;;;;;;;;;;;;;;5096879;28;19912;-68
2023/01/05 07:52:04;;;;;;;;;;;;;;;;;;5096578;28;19912;-68
2023/01/05 07:54:30;;;;;;;;;;;;;;;;;;5096177;28;19912;-68
2023/01/05 07:56:56;;;;;;;;;;;;;;;;;;5096526;28;19908;-67
2023/01/05 07:59:22;;;;;;;;;;;;;;;;;;5096371;28;19959;-67
2023/01/05 08:01:48;;;;;;;;;;;;;;;;;;5077815;28;19908;-67
2023/01/05 08:04:14;;;;;;;;;;;;;;;;;;5078189;28;19915;-68
2023/01/05 08:06:40;;;;;;;;;;;;;;;;;;5096339;28;20426;-67
2023/01/05 08:11:50;;;;;;;;;;;;;;;;;;5095997;28;20376;-67
2023/01/05 08:14:16;;;;;;;;;;;;;;;;;;5095773;28;19908;-67
2023/01/05 08:16:42;;;;;;;;;;;;;;;;;;5095945;28;19933;-68
2023/01/05 08:19:09;;;;;;;;;;;;;;;;;;5096337;28;20024;-67
2023/01/05 08:21:35;;;;;;;;;;;;;;;;;;5095622;28;19909;-67
2023/01/05 08:24:01;;;;;;;;;;;;;;;;;;5077791;28;19915;-67
2023/01/05 08:26:27;;;;;;;;;;;;;;;;;;5095977;28;19908;-68
2023/01/05 08:28:53;;;;;;;;;;;;;;;;;;5095732;28;19908;-67
2023/01/05 08:31:19;;;;;;;;;;;;;;;;;;5077813;28;19908;-68
2023/01/05 08:33:45;;;;;;;;;;;;;;;;;;5095856;28;19995;-67
2023/01/05 08:36:10;;;;;;;;;;;;;;;;;;5095578;28;20352;-67
2023/01/05 08:38:36;;;;;;;;;;;;;;;;;;5095593;28;19939;-67
2023/01/05 08:41:02;;;;;;;;;;;;;;;;;;5095503;28;19994;-67
2023/01/05 08:43:28;;;;;;;;;;;;;;;;;;5095197;28;19908;-68
2023/01/05 08:45:54;;;;;;;;;;;;;;;;;;5095831;28;20308;-68
2023/01/05 08:48:20;;;;;;;;;;;;;;;;;;5095537;28;19911;-68
2023/01/05 08:50:46;;;;;;;;;;;;;;;;;;5076979;28;20004;-67
2023/01/05 08:53:12;;;;;;;;;;;;;;;;;;5077127;28;19908;-68
2023/01/05 08:55:38;;;;;;;;;;;;;;;;;;5077191;28;19919;-68
2023/01/05 08:58:07;;;;;;;;;;;;;;;;;;5094882;28;20061;-68
2023/01/05 09:00:33;;;;;;;;;;;;;;;;;;5095237;28;19952;-67
2023/01/05 09:02:59;;;;;;;;;;;;;;;;;;5077044;28;19999;-67
2023/01/05 09:05:25;;;;;;;;;;;;;;;;;;5094717;28;19916;-67
2023/01/05 09:07:51;;;;;;;;;;;;;;;;;;5076898;28;20352;-68
2023/01/05 09:10:17;;;;;;;;;;;;;;;;;;5076897;28;20249;-67
2023/01/05 09:12:44;;;;;;;;;;;;;;;;;;5094709;28;19908;-68
2023/01/05 09:15:10;;;;;;;;;;;;;;;;;;5076855;28;19916;-68
2023/01/05 09:17:37;;;;;;;;;;;;;;;;;;5076133;28;19920;-68
2023/01/05 09:20:03;;;;;;;;;;;;;;;;;;5076746;28;19969;-68
2023/01/05 09:22:29;;;;;;;;;;;;;;;;;;5075955;28;19908;-68
2023/01/05 09:24:54;;;;;;;;;;;;;;;;;;5094379;28;19915;-68
2023/01/05 09:27:20;;;;;;;;;;;;;;;;;;5094693;28;19912;-67
2023/01/05 09:29:46;;;;;;;;;;;;;;;;;;5094729;28;19955;-68
2023/01/05 09:32:12;;;;;;;;;;;;;;;;;;5094270;28;19974;-68
2023/01/05 09:34:38;;;;;;;;;;;;;;;;;;5076452;28;19912;-68
2023/01/05 09:37:04;;;;;;;;;;;;;;;;;;5094598;28;19908;-68
2023/01/05 09:39:30;;;;;;;;;;;;;;;;;;5094221;28;19908;-68
2023/01/05 09:41:57;;;;;;;;;;;;;;;;;;5094626;28;20003;-68
2023/01/05 09:44:23;;;;;;;;;;;;;;;;;;5076343;28;19916;-68
2023/01/05 09:46:49;;;;;;;;;;;;;;;;;;5094225;28;19908;-68
2023/01/05 09:49:15;;;;;;;;;;;;;;;;;;5076369;28;20019;-69
2023/01/05 09:51:41;;;;;;;;;;;;;;;;;;5076205;28;19912;-68
2023/01/05 09:54:07;;;;;;;;;;;;;;;;;;5075763;28;19915;-68
2023/01/05 09:56:33;;;;;;;;;;;;;;;;;;5094396;28;19946;-67
2023/01/05 09:58:59;;;;;;;;;;;;;;;;;;5094779;28;20348;-67
2023/01/05 10:01:25;;;;;;;;;;;;;;;;;;5093747;28;19915;-68
2023/01/05 10:03:51;;;;;;;;;;;;;;;;;;5076319;28;19912;-68
2023/01/05 10:06:17;;;;;;;;;;;;;;;;;;5094281;28;19915;-68
2023/01/05 10:08:43;;;;;;;;;;;;;;;;;;5093752;28;19908;-69
2023/01/05 10:13:54;;;;;;;;;;;;;;;;;;5093853;28;20046;-68
2023/01/05 10:16:20;;;;;;;;;;;;;;;;;;5094018;28;20379;-69
2023/01/05 10:18:46;;;;;;;;;;;;;;;;;;5072623;28;20296;-68
2023/01/05 10:21:12;;;;;;;;;;;;;;;;;;5073598;28;19956;-69
2023/01/05 10:23:38;;;;;;;;;;;;;;;;;;5072512;28;19923;-68
2023/01/05 10:26:04;;;;;;;;;;;;;;;;;;5073721;28;19908;-68
2023/01/05 10:28:30;;;;;;;;;;;;;;;;;;5073393;28;19999;-70
2023/01/05 10:30:56;;;;;;;;;;;;;;;;;;5072564;28;19947;-68
2023/01/05 10:33:22;;;;;;;;;;;;;;;;;;5073747;28;19918;-69
2023/01/05 10:35:48;;;;;;;;;;;;;;;;;;5076202;28;19909;-68
2023/01/05 10:38:14;;;;;;;;;;;;;;;;;;5077756;28;20375;-67
2023/01/05 10:40:40;;;;;;;;;;;;;;;;;;5076647;28;20360;-68
2023/01/05 10:43:06;;;;;;;;;;;;;;;;;;5077336;28;19909;-68
2023/01/05 10:45:31;;;;;;;;;;;;;;;;;;5077648;28;19912;-69
2023/01/05 10:47:57;;;;;;;;;;;;;;;;;;5077736;28;19909;-69
2023/01/05 10:50:23;;;;;;;;;;;;;;;;;;5077155;28;19940;-69
2023/01/05 10:52:49;;;;;;;;;;;;;;;;;;5076197;28;19908;-68
2023/01/05 10:55:15;;;;;;;;;;;;;;;;;;5076327;28;19908;-69
2023/01/05 10:57:41;;;;;;;;;;;;;;;;;;5076895;28;20046;-67
2023/01/05 11:00:08;;;;;;;;;;;;;;;;;;5077407;28;19908;-68
2023/01/05 11:02:34;;;;;;;;;;;;;;;;;;5075986;28;20284;-68
2023/01/05 11:05:00;;;;;;;;;;;;;;;;;;5076809;28;19969;-68
2023/01/05 11:07:26;;;;;;;;;;;;;;;;;;5077747;28;20353;-68
2023/01/05 11:09:52;;;;;;;;;;;;;;;;;;5077038;28;20379;-68
2023/01/05 11:12:18;;;;;;;;;;;;;;;;;;5076708;28;20326;-67
2023/01/05 11:14:43;;;;;;;;;;;;;;;;;;5077001;28;19924;-68
2023/01/05 11:17:09;;;;;;;;;;;;;;;;;;5075007;28;19916;-68
2023/01/05 11:19:35;;;;;;;;;;;;;;;;;;5076946;28;19920;-68
2023/01/05 11:22:01;;;;;;;;;;;;;;;;;;5076855;28;19913;-71
2023/01/05 11:24:28;;;;;;;;;;;;;;;;;;5076548;28;19915;-69
2023/01/05 11:26:54;;;;;;;;;;;;;;;;;;5075530;28;19951;-69
2023/01/05 11:29:20;;;;;;;;;;;;;;;;;;5076667;28;19912;-69
2023/01/05 11:31:46;;;;;;;;;;;;;;;;;;5072591;28;19994;-67
2023/01/05 11:34:12;;;;;;;;;;;;;;;;;;5076285;28;19920;-68
2023/01/05 11:36:38;;;;;;;;;;;;;;;;;;5076479;28;19912;-68
2023/01/05 11:39:03;;;;;;;;;;;;;;;;;;5075973;28;19923;-70
2023/01/05 11:41:29;;;;;;;;;;;;;;;;;;5075065;28;19916;-69
2023/01/05 11:43:59;;;;;;;;;;;;;;;;;;5076531;28;19909;-69
2023/01/05 11:46:25;;;;;;;;;;;;;;;;;;5075254;28;20384;-69
2023/01/05 11:48:51;;;;;;;;;;;;;;;;;;5074168;28;19908;-69
2023/01/05 11:51:17;;;;;;;;;;;;;;;;;;5074880;28;19908;-67
2023/01/05 11:53:43;;;;;;;;;;;;;;;;;;5074531;28;19919;-69
2023/01/05 11:56:09;;;;;;;;;;;;;;;;;;5074273;28;19992;-68
2023/01/05 11:58:35;;;;;;;;;;;;;;;;;;5074664;28;19917;-68
2023/01/05 12:01:01;;;;;;;;;;;;;;;;;;5075781;28;19916;-69
2023/01/05 12:03:27;;;;;;;;;;;;;;;;;;5074796;28;20280;-68
2023/01/05 12:05:53;;;;;;;;;;;;;;;;;;5076396;28;20295;-67
2023/01/05 12:08:19;;;;;;;;;;;;;;;;;;5075574;28;19912;-68
2023/01/05 12:10:45;;;;;;;;;;;;;;;;;;5076003;28;19931;-67
2023/01/05 12:13:11;;;;;;;;;;;;;;;;;;5074315;28;20062;-68
2023/01/05 12:15:37;;;;;;;;;;;;;;;;;;5075751;28;20415;-68
2023/01/05 12:18:03;;;;;;;;;;;;;;;;;;5074282;28;20303;-67
2023/01/05 12:20:29;;;;;;;;;;;;;;;;;;5075356;28;19908;-68
2023/01/05 12:22:55;;;;;;;;;;;;;;;;;;5074822;28;19915;-67
2023/01/05 12:25:21;;;;;;;;;;;;;;;;;;5075472;28;20400;-67
2023/01/05 12:27:47;;;;;;;;;;;;;;;;;;5075321;28;20353;-69
2023/01/05 12:30:13;;;;;;;;;;;;;;;;;;5075631;28;19909;-68
2023/01/05 12:33:30;;;;;;;;;;;;;;;;;;5112103;27;19912;-70
2023/01/05 12:35:56;;;;;;;;;;;;;;;;;;5111482;28;20014;-69
2023/01/05 12:38:23;;;;;;;;;;;;;;;;;;5111989;28;19908;-69
2023/01/05 12:40:49;;;;;;;;;;;;;;;;;;5111717;28;20002;-67
2023/01/05 12:43:14;;;;;;;;;;;;;;;;;;5111256;28;19951;-69
2023/01/05 12:45:41;;;;;;;;;;;;;;;;;;5111571;28;19915;-69
2023/01/05 12:48:07;;;;;;;;;;;;;;;;;;5111549;28;19912;-68
2023/01/05 12:50:33;;;;;;;;;;;;;;;;;;5111076;28;19908;-67
2023/01/05 12:56:40;;;;;;;;;;;;;;;;;;5111608;27;19916;-69
2023/01/05 12:59:06;;;;;;;;;;;;;;;;;;5111770;28;19998;-67
2023/01/05 13:01:32;;;;;;;;;;;;;;;;;;5110178;28;19908;-69
2023/01/05 13:03:58;;;;;;;;;;;;;;;;;;5111186;28;20355;-68
2023/01/05 13:06:24;;;;;;;;;;;;;;;;;;5109954;28;19908;-67
2023/01/05 13:10:00;;;;;;;;;;;;;;;;;;5110686;27;19918;-68
2023/01/05 13:12:26;;;;;;;;;;;;;;;;;;5109248;28;19994;-68
2023/01/05 13:14:52;;;;;;;;;;;;;;;;;;5110237;28;19908;-69
2023/01/05 13:17:18;;;;;;;;;;;;;;;;;;5111136;28;19943;-69
2023/01/05 13:20:35;;;;;;;;;;;;;;;;;;5091553;27;19922;-68
2023/01/05 13:23:54;;;;;;;;;;;;;;;;;;5111808;27;20391;-67
2023/01/05 13:28:38;;;;;;;;;;;;;;;;;;5112208;27;19912;-68
2023/01/05 13:31:04;;;;;;;;;;;;;;;;;;5110036;28;19966;-68
2023/01/05 13:33:49;;;;;;;;;;;;;;;;;;5111941;27;19922;-68
2023/01/05 13:37:06;;;;;;;;;;;;;;;;;;5111792;27;19922;-68
2023/01/05 13:41:12;;;;;;;;;;;;;;;;;;5132523;27;20011;-68
2023/01/05 13:43:57;;;;;;;;;;;;;;;;;;5112572;27;19912;-67
2023/01/05 13:50:14;;;;;;;;;;;;;;;;;;5112507;27;19922;-68
2023/01/05 13:53:55;;;;;;;;;;;;;;;;;;5111924;27;19916;-67
2023/01/05 13:56:21;;;;;;;;;;;;;;;;;;5110510;28;19994;-69
2023/01/05 13:58:47;;;;;;;;;;;;;;;;;;5110018;28;19908;-68
2023/01/05 14:01:13;;;;;;;;;;;;;;;;;;5111636;28;19908;-67
2023/01/05 14:03:40;;;;;;;;;;;;;;;;;;5111568;28;19908;-69
2023/01/05 14:06:07;;;;;;;;;;;;;;;;;;5109916;28;19908;-68
2023/01/05 14:10:08;;;;;;;;;;;;;;;;;;5111891;27;19916;-67
2023/01/05 14:12:45;;;;;;;;;;;;;;;;;;5111784;27;20406;-68
2023/01/05 14:15:11;;;;;;;;;;;;;;;;;;5112305;28;19920;-67
2023/01/05 14:20:15;;;;;;;;;;;;;;;;;;5111432;27;19916;-68
2023/01/05 14:23:00;;;;;;;;;;;;;;;;;;5112429;27;19912;-67
2023/01/05 14:25:26;;;;;;;;;;;;;;;;;;5110468;28;20312;-67
2023/01/05 14:30:17;;;;;;;;;;;;;;;;;;5153382;27;19915;-67
2023/01/05 14:32:43;;;;;;;;;;;;;;;;;;5153021;27;20030;-67
2023/01/05 14:36:11;;;;;;;;;;;;;;;;;;5091181;28;20278;-68
2023/01/05 14:40:21;;;;;;;;;;;;;;;;;;5111705;27;19916;-68
2023/01/05 14:42:46;;;;;;;;;;;;;;;;;;5111374;28;19919;-68
2023/01/05 14:48:06;;;;;;;;;;;;;;;;;;5091260;27;19916;-67
2023/01/05 14:50:46;;;;;;;;;;;;;;;;;;5112430;27;19916;-68
2023/01/05 14:53:12;;;;;;;;;;;;;;;;;;5112088;28;20006;-68
2023/01/05 14:55:38;;;;;;;;;;;;;;;;;;5111483;28;19908;-68
2023/01/05 14:58:04;;;;;;;;;;;;;;;;;;5111668;28;19961;-68
2023/01/05 15:00:30;;;;;;;;;;;;;;;;;;5111826;28;20272;-68
2023/01/05 15:02:56;;;;;;;;;;;;;;;;;;5111456;28;20321;-68
2023/01/05 15:07:47;;;;;;;;;;;;;;;;;;5091659;27;19923;-68
2023/01/05 15:11:43;;;;;;;;;;;;;;;;;;5111882;27;19916;-69
2023/01/05 15:15:36;;;;;;;;;;;;;;;;;;5112152;27;19916;-67
2023/01/05 15:18:02;;;;;;;;;;;;;;;;;;5111423;28;19912;-68
2023/01/05 15:20:28;;;;;;;;;;;;;;;;;;5111685;28;19912;-68
2023/01/05 15:22:54;;;;;;;;;;;;;;;;;;5111650;28;19912;-67
2023/01/05 15:25:19;;;;;;;;;;;;;;;;;;5111141;28;19947;-68
2023/01/05 15:27:45;;;;;;;;;;;;;;;;;;5110300;28;19912;-67
2023/01/05 15:30:11;;;;;;;;;;;;;;;;;;5111047;28;19908;-69
2023/01/05 15:32:37;;;;;;;;;;;;;;;;;;5111532;28;19958;-68
2023/01/05 15:35:03;;;;;;;;;;;;;;;;;;5110105;28;19916;-68
2023/01/05 15:37:29;;;;;;;;;;;;;;;;;;5110999;28;20085;-68
2023/01/05 15:39:55;;;;;;;;;;;;;;;;;;5111334;28;19912;-69
2023/01/05 15:42:21;;;;;;;;;;;;;;;;;;5111274;28;20331;-69
2023/01/05 15:44:47;;;;;;;;;;;;;;;;;;5110864;28;20273;-68
2023/01/05 15:47:13;;;;;;;;;;;;;;;;;;5111281;28;19914;-67
2023/01/05 15:49:39;;;;;;;;;;;;;;;;;;5111173;28;19908;-67
2023/01/05 15:52:05;;;;;;;;;;;;;;;;;;5110756;28;19919;-68
2023/01/05 15:54:31;;;;;;;;;;;;;;;;;;5109684;28;19923;-68
2023/01/05 15:56:57;;;;;;;;;;;;;;;;;;5111075;28;19914;-68
2023/01/05 15:59:23;;;;;;;;;;;;;;;;;;5110531;28;20003;-68
2023/01/05 16:01:49;;;;;;;;;;;;;;;;;;5110964;28;19908;-68
2023/01/05 16:04:15;;;;;;;;;;;;;;;;;;5109586;28;19914;-67
2023/01/05 16:06:41;;;;;;;;;;;;;;;;;;5109202;28;19912;-68
2023/01/05 16:09:07;;;;;;;;;;;;;;;;;;5111175;28;20287;-68
2023/01/05 16:11:33;;;;;;;;;;;;;;;;;;5109459;28;19943;-68
2023/01/05 16:13:59;;;;;;;;;;;;;;;;;;5108832;28;19927;-68
2023/01/05 16:16:25;;;;;;;;;;;;;;;;;;5110759;28;20284;-68
2023/01/05 16:18:51;;;;;;;;;;;;;;;;;;5110587;28;20268;-68
2023/01/05 16:21:17;;;;;;;;;;;;;;;;;;5110151;28;20016;-68
2023/01/05 16:23:42;;;;;;;;;;;;;;;;;;5110503;28;19908;-69
2023/01/05 16:26:08;;;;;;;;;;;;;;;;;;5101331;28;19914;-69
2023/01/05 16:28:34;;;;;;;;;;;;;;;;;;5096447;28;19951;-67
2023/01/05 16:31:00;;;;;;;;;;;;;;;;;;5095532;28;19908;-68
2023/01/05 16:33:26;;;;;;;;;;;;;;;;;;5095012;28;19908;-67
2023/01/05 16:35:53;;;;;;;;;;;;;;;;;;5095464;28;19934;-68
2023/01/05 16:38:19;;;;;;;;;;;;;;;;;;5096726;28;19944;-69
2023/01/05 16:40:45;;;;;;;;;;;;;;;;;;5096250;28;19954;-68
2023/01/05 16:43:11;;;;;;;;;;;;;;;;;;5096538;28;20368;-68
2023/01/05 16:45:37;;;;;;;;;;;;;;;;;;5096856;28;20333;-68
2023/01/05 16:48:03;;;;;;;;;;;;;;;;;;5096250;28;20364;-69
2023/01/05 16:50:29;;;;;;;;;;;;;;;;;;5096513;28;20352;-68
2023/01/05 16:52:54;;;;;;;;;;;;;;;;;;5096361;28;20375;-67
2023/01/05 16:55:24;;;;;;;;;;;;;;;;;;5094595;28;20273;-68
2023/01/05 16:57:49;;;;;;;;;;;;;;;;;;5096279;28;19915;-68
2023/01/05 17:00:15;;;;;;;;;;;;;;;;;;5094957;28;20280;-69
2023/01/05 17:02:42;;;;;;;;;;;;;;;;;;5095861;28;20331;-69
2023/01/05 17:05:09;;;;;;;;;;;;;;;;;;5094949;28;19914;-69
2023/01/05 17:07:35;;;;;;;;;;;;;;;;;;5096045;28;20291;-67
2023/01/05 17:10:00;;;;;;;;;;;;;;;;;;5095562;28;20011;-68
2023/01/05 17:12:26;;;;;;;;;;;;;;;;;;5096346;28;19916;-68
2023/01/05 17:14:52;;;;;;;;;;;;;;;;;;5095925;28;19920;-68
2023/01/05 17:17:18;;;;;;;;;;;;;;;;;;5095590;28;19908;-68
2023/01/05 17:19:45;;;;;;;;;;;;;;;;;;5095833;28;19908;-67
2023/01/05 17:22:10;;;;;;;;;;;;;;;;;;5095891;28;19915;-68
2023/01/05 17:24:36;;;;;;;;;;;;;;;;;;5094069;28;19908;-67
2023/01/05 17:27:02;;;;;;;;;;;;;;;;;;5095720;28;19939;-68
2023/01/05 17:29:28;;;;;;;;;;;;;;;;;;5095742;28;20288;-68
2023/01/05 17:31:54;;;;;;;;;;;;;;;;;;5093925;28;19970;-68
2023/01/05 17:34:20;;;;;;;;;;;;;;;;;;5095568;28;20319;-68
2023/01/05 17:36:46;;;;;;;;;;;;;;;;;;5094489;28;19961;-68
2023/01/05 17:39:12;;;;;;;;;;;;;;;;;;5095184;28;19908;-69
2023/01/05 17:41:38;;;;;;;;;;;;;;;;;;5094268;28;19938;-68
2023/01/05 17:44:04;;;;;;;;;;;;;;;;;;5095035;28;20238;-68
2023/01/05 17:46:30;;;;;;;;;;;;;;;;;;5095302;28;19908;-68
2023/01/05 17:48:57;;;;;;;;;;;;;;;;;;5094001;28;19919;-68
2023/01/05 17:51:23;;;;;;;;;;;;;;;;;;5094876;28;19919;-68